Terminal Aerodrome Forecast
Issued by NWS Jackson, MS

Home | Current Version | Previous Version | Text Only | Print | Product List | Glossary On
Versions: 1 2 3 4 5 6 7 8 9 10 11 12 13 14 15 16 17 18
131
FTUS44 KJAN 242341
TAFMEI
TAF
KMEI 242341Z 2500/2524 17006KT P6SM SKC
     FM251200 19003KT 4SM BR SCT003 OVC015
     FM251600 19008KT P6SM SCT007 OVC015
     FM252000 21008KT P6SM -SHRA BKN015 OVC025=

USA.gov is the U.S. government's official web portal to all federal, state and local government web resources and services.